Data for 08/13/2015

Time Sea-Level Adjusted Pressure Absolute Pressure Temperature Relative Humidity Dew Point   
(mb) (inHg) (mb) (inHg) (C) (F) (%) (C) (F)
00:05 1025 30.27 854 25.22 17 62.6 66 10.6 51.1
00:10 1025 30.27 854 25.22 17 62.7 66 10.7 51.3
00:15 1025 30.27 854 25.22 17 62.5 66 10.7 51.2
00:20 1025 30.27 854 25.22 16.9 62.5 66 10.6 51.2
00:25 1025 30.27 854 25.22 16.9 62.5 65 10.4 50.6
00:30 1025 30.27 854 25.22 16.9 62.5 66 10.5 50.9
00:35 1025 30.27 854 25.22 16.9 62.4 66 10.6 51.1
00:40 1025 30.27 854 25.22 16.6 61.9 69 10.9 51.7
00:45 1025 30.27 854 25.22 16.3 61.3 70 10.8 51.4
00:50 1025 30.27 854 25.22 16.3 61.3 68 10.5 50.9
00:55 1025 30.27 854 25.22 16.4 61.5 68 10.6 51
01:00 1025 30.27 854 25.22 16.4 61.5 70 10.9 51.7
01:05 1025 30.27 854 25.22 16.4 61.4 69 10.6 51.1
01:10 1025 30.27 854 25.22 16.3 61.4 69 10.6 51
01:15 1025 30.27 854 25.22 16.4 61.5 68 10.6 51
01:20 1025 30.27 854 25.22 16.4 61.5 69 10.9 51.6
01:25 1025 30.27 854 25.22 16 60.8 71 10.9 51.6
01:30 1025 30.27 854 25.22 15.9 60.7 71 10.7 51.3
01:35 1025 30.27 854 25.22 16 60.9 70 10.6 51
01:40 1025 30.27 854 25.22 16.2 61.1 70 10.7 51.3
01:45 1025 30.27 854 25.22 16.2 61.2 68 10.4 50.6
01:50 1025 30.27 854 25.22 16.4 61.6 68 10.6 51.1
01:55 1025 30.27 854 25.22 16.3 61.3 69 10.7 51.2
02:00 1025 30.27 854 25.22 16.1 61 70 10.7 51.3
02:05 1025 30.27 854 25.22 16 60.7 70 10.5 51
02:10 1025 30.27 854 25.22 15.9 60.6 70 10.6 51
02:15 1025 30.27 854 25.22 15.8 60.5 70 10.5 50.9
02:20 1025 30.27 854 25.22 15.8 60.4 74 11.2 52.1
02:25 1025 30.27 854 25.22 15.7 60.2 71 10.4 50.7
02:30 1025 30.27 854 25.22 15.5 59.9 72 10.5 51
02:35 1025 30.27 854 25.22 15.3 59.6 72 10.4 50.8
02:40 1025 30.27 854 25.22 15.1 59.2 74 10.6 51
02:45 1025 30.27 854 25.22 14.9 58.8 76 10.6 51.1
02:50 1025 30.27 854 25.22 15 58.9 76 10.7 51.3
02:55 1025 30.27 854 25.22 15.1 59.1 73 10.3 50.6
03:00 1025 30.27 854 25.22 15.2 59.4 73 10.5 51
03:05 1025 30.27 854 25.22 14.9 58.8 75 10.6 51.1
03:10 1025 30.27 854 25.22 14.6 58.3 76 10.5 51
03:15 1025 30.27 854 25.22 14.4 57.9 77 10.6 51
03:20 1025 30.27 854 25.22 14.1 57.3 79 10.5 50.9
03:25 1025 30.27 854 25.22 13.9 57.1 79 10.3 50.6
03:30 1025 30.27 854 25.22 14.1 57.4 78 10.4 50.7
03:35 1025 30.27 854 25.22 14 57.2 78 10.3 50.6
03:40 1025 30.27 854 25.22 13.9 57.1 79 10.3 50.6
03:45 1025 30.27 855 25.25 13.8 56.8 79 10.2 50.3
03:50 1025 30.27 855 25.25 13.6 56.4 79 10 50.1
03:55 1025 30.27 855 25.25 13.7 56.6 75 9.4 48.9
04:00 1025 30.27 855 25.25 13.9 57 76 9.7 49.5
04:05 1025 30.27 855 25.25 14 57.3 76 9.8 49.7
04:10 1025 30.27 855 25.25 13.9 56.9 78 10.1 50.1
04:15 1025 30.27 855 25.25 13.7 56.6 78 10 50
04:20 1025 30.27 855 25.25 13.7 56.7 78 10 50
04:25 1025 30.27 855 25.25 13.6 56.5 78 9.9 49.9
04:30 1025 30.27 855 25.25 13.7 56.6 78 9.9 49.8
04:35 1025 30.27 855 25.25 13.8 56.9 77 9.9 49.8
04:40 1025 30.27 855 25.25 13.8 56.8 78 9.9 49.9
04:45 1025 30.27 855 25.25 13.7 56.6 78 9.8 49.7
04:50 1026 30.3 855 25.25 13.6 56.6 77 9.8 49.6
04:55 1026 30.3 855 25.25 13.7 56.6 78 9.9 49.8
05:00 1026 30.3 855 25.25 13.6 56.4 78 9.9 49.8
05:05 1026 30.3 855 25.25 13.2 55.8 79 9.7 49.4
05:10 1026 30.3 855 25.25 13 55.3 79 9.4 48.9
05:15 1026 30.3 855 25.25 12.9 55.2 78 9.2 48.6
05:20 1026 30.3 855 25.25 12.9 55.1 78 9.2 48.5
05:25 1026 30.3 855 25.25 13 55.4 78 9.2 48.6
05:30 1026 30.3 855 25.25 12.9 55.3 78 9.2 48.6
05:35 1026 30.3 855 25.25 13 55.3 78 9.2 48.6
05:40 1026 30.3 855 25.25 12.9 55.3 79 9.4 48.8
05:45 1026 30.3 855 25.25 12.9 55.2 79 9.3 48.8
05:50 1026 30.3 855 25.25 12.9 55.2 78 9.3 48.7
05:55 1026 30.3 855 25.25 13.1 55.5 77 9.2 48.5
06:00 1026 30.3 855 25.25 13.4 56.1 75 9.1 48.4
06:05 1026 30.3 855 25.25 13.7 56.6 73 9.1 48.3
06:10 1026 30.3 855 25.25 14 57.2 72 9 48.2
06:15 1026 30.3 855 25.25 14 57.1 73 9.2 48.5
06:20 1026 30.3 855 25.25 13.8 56.8 74 9.2 48.5
06:25 1026 30.3 855 25.25 13.8 56.8 73 9 48.2
06:30 1026 30.3 855 25.25 14 57.3 72 9.2 48.5
06:35 1026 30.3 855 25.25 14.2 57.6 72 9.2 48.6
06:40 1026 30.3 855 25.25 14.4 57.9 72 9.4 48.9
06:45 1026 30.3 855 25.25 14.6 58.4 71 9.5 49.1
06:50 1026 30.3 855 25.25 15.1 59.1 69 9.5 49.1
06:55 1026 30.3 855 25.25 15.4 59.7 68 9.6 49.3
07:00 1026 30.3 855 25.25 15.8 60.4 67 9.7 49.4
07:05 1026 30.3 855 25.25 16.1 60.9 67 9.9 49.8
07:10 1026 30.3 855 25.25 16.2 61.2 66 10 50
07:15 1026 30.3 855 25.25 16.7 62.1 65 10.1 50.2
07:20 1026 30.3 855 25.25 16.9 62.5 64 10.3 50.5
07:25 1026 30.3 855 25.25 17.3 63.1 63 10.3 50.5
07:30 1026 30.3 855 25.25 17.7 63.8 62 10.4 50.8
07:35 1026 30.3 855 25.25 17.9 64.3 62 10.7 51.2
07:40 1026 30.3 855 25.25 18.1 64.5 61 10.5 50.9
07:45 1026 30.3 855 25.25 18.2 64.8 61 10.5 51
07:50 1026 30.3 855 25.25 18.4 65.2 57 9.8 49.7
07:55 1026 30.3 855 25.25 18.8 65.8 59 10.7 51.2
08:00 1026 30.3 855 25.25 19.2 66.5 58 10.7 51.3
08:05 1026 30.3 855 25.25 19.5 67.1 57 10.9 51.7
08:10 1026 30.3 855 25.25 19.8 67.7 54 10.4 50.7
08:15 1026 30.3 855 25.25 20.5 68.9 53 10.7 51.3
08:20 1026 30.3 855 25.25 20.9 69.7 52 10.9 51.7
08:25 1026 30.3 855 25.25 21.4 70.5 50 10.6 51.2
08:30 1026 30.3 855 25.25 21.7 71.1 50 10.9 51.6
08:35 1026 30.3 855 25.25 22 71.5 50 11.1 51.9
08:40 1026 30.3 855 25.25 21.8 71.3 49 10.7 51.2
08:45 1026 30.3 855 25.25 22.5 72.4 46 10.5 51
08:50 1026 30.3 855 25.25 22.3 72.2 45 10.1 50.3
08:55 1026 30.3 855 25.25 22.6 72.6 45 10.3 50.6
09:00 1026 30.3 855 25.25 22.9 73.2 43 9.7 49.5
09:05 1026 30.3 855 25.25 23.5 74.3 42 9.9 49.9
09:10 1026 30.3 855 25.25 23 73.3 44 10.2 50.3
09:15 1026 30.3 855 25.25 23.4 74.1 41 9.7 49.4
09:20 1026 30.3 855 25.25 23.7 74.6 42 10.1 50.1
09:25 1026 30.3 855 25.25 24.1 75.3 42 10.4 50.7
09:30 1026 30.3 855 25.25 23.7 74.7 42 10.3 50.5
09:35 1026 30.3 855 25.25 23.6 74.5 43 10.5 50.8
09:40 1026 30.3 855 25.25 24.2 75.6 42 10.5 51
09:45 1026 30.3 855 25.25 24.8 76.6 41 11 51.8
09:50 1026 30.3 855 25.25 24.6 76.3 41 10.7 51.2
09:55 1026 30.3 855 25.25 24.8 76.7 40 10.7 51.2
10:00 1026 30.3 855 25.25 24.1 75.3 43 10.9 51.6
10:05 1026 30.3 855 25.25 23.9 75.1 42 10.3 50.5
10:10 1026 30.3 855 25.25 24.8 76.7 40 10.4 50.7
10:15 1026 30.3 855 25.25 25.7 78.2 39 10.9 51.7
10:20 1026 30.3 855 25.25 25.9 78.6 38 10.7 51.2
10:25 1026 30.3 855 25.25 26 78.8 37 10.6 51.1
10:30 1026 30.3 855 25.25 26.1 79 39 11.2 52.2
10:35 1026 30.3 855 25.25 26.1 79 39 11.5 52.7
10:40 1026 30.3 855 25.25 26.1 79 41 12 53.6
10:45 1026 30.3 855 25.25 25.8 78.4 41 11.8 53.2
10:50 1026 30.3 855 25.25 26.3 79.3 40 11.7 53.1
10:55 1026 30.3 855 25.25 26.3 79.3 41 12.2 53.9
11:00 1026 30.3 855 25.25 26.4 79.5 39 11.4 52.5
11:05 1026 30.3 855 25.25 26.6 79.8 38 11.2 52.1
11:10 1026 30.3 855 25.25 26.7 80 39 11.7 53.1
11:15 1026 30.3 855 25.25 27.1 80.8 37 11.4 52.5
11:20 1025 30.27 855 25.25 27.2 81 38 11.8 53.2
11:25 1025 30.27 855 25.25 26.6 79.9 40 12.2 54
11:30 1025 30.27 855 25.25 26.8 80.2 39 11.7 53.1
11:35 1025 30.27 855 25.25 27.2 81 41 12.9 55.2
11:40 1025 30.27 854 25.22 26.7 80.1 41 12.5 54.5
11:45 1025 30.27 854 25.22 26.3 79.4 40 11.7 53.1
11:50 1025 30.27 854 25.22 27.1 80.7 38 11.6 52.9
11:55 1025 30.27 854 25.22 27.7 81.8 38 12.2 54
12:00 1025 30.27 854 25.22 27.7 81.9 37 12 53.7
12:05 1025 30.27 854 25.22 28.2 82.8 36 12 53.6
12:10 1025 30.27 854 25.22 27.5 81.6 40 13.1 55.6
12:15 1025 30.27 854 25.22 27.2 81 39 12.4 54.3
12:20 1025 30.27 854 25.22 27 80.7 40 12.5 54.5
12:25 1025 30.27 854 25.22 28.1 82.6 39 13.1 55.6
12:30 1025 30.27 854 25.22 28.3 82.9 37 12.5 54.4
12:35 1025 30.27 854 25.22 28.5 83.3 37 12.8 55
12:40 1025 30.27 854 25.22 28.8 83.8 34 11.6 52.9
12:45 1025 30.27 854 25.22 29.7 85.5 34 12.4 54.3
12:50 1024 30.24 854 25.22 30.3 86.5 30 11.3 52.4
12:55 1024 30.24 854 25.22 29.6 85.2 31 10.8 51.4
13:00 1024 30.24 853 25.19 30.3 86.6 27 9.4 48.9
13:05 1024 30.24 853 25.19 30.6 87 28 10.3 50.6
13:10 1024 30.24 853 25.19 30.4 86.7 29 10.5 50.8
13:15 1024 30.24 853 25.19 29.9 85.9 27 9.4 48.9
13:20 1024 30.24 853 25.19 30.4 86.7 24 7.9 46.1
13:25 1024 30.24 853 25.19 31.1 87.9 22 7.2 45
13:30 1024 30.24 853 25.19 31.7 89 21 7.2 45
13:35 1024 30.24 853 25.19 31.9 89.3 19 5.7 42.3
13:40 1024 30.24 853 25.19 31.3 88.3 18 4.5 40.1
13:45 1024 30.24 853 25.19 30.7 87.2 22 6.9 44.4
13:50 1024 30.24 853 25.19 31.1 88 19 5.3 41.5
13:55 1024 30.24 853 25.19 31.4 88.5 20 5.9 42.6
14:00 1024 30.24 853 25.19 30.8 87.4 19 5.2 41.4
14:05 1024 30.24 853 25.19 31.1 87.9 17 3.7 38.6
14:10 1024 30.24 853 25.19 31.2 88.1 19 5 41.1
14:15 1024 30.24 853 25.19 31.8 89.2 14 1.9 35.4
14:20 1024 30.24 853 25.19 32.6 90.6 15 2.9 37.2
14:25 1023 30.21 853 25.19 32.7 90.9 14 2 35.6
14:30 1023 30.21 853 25.19 31.6 88.9 16 2.8 37
14:35 1023 30.21 853 25.19 32 89.6 17 4 39.2
14:40 1023 30.21 852 25.16 33.5 92.3 14 3.2 37.7
14:45 1023 30.21 852 25.16 33.2 91.7 15 3.4 38.1
14:50 1023 30.21 852 25.16 33.2 91.8 15 3.3 37.9
14:55 1023 30.21 852 25.16 32.9 91.2 15 3.4 38.1
15:00 1023 30.21 852 25.16 33.5 92.2 15 3.5 38.2
15:05 1023 30.21 852 25.16 33.2 91.8 15 3.4 38.2
15:10 1023 30.21 852 25.16 33.8 92.8 14 2.9 37.2
15:15 1023 30.21 852 25.16 34.6 94.4 14 4.1 39.4
15:20 1023 30.21 852 25.16 33.8 92.8 14 3.4 38.2
15:25 1023 30.21 852 25.16 32.9 91.3 15 3.6 38.5
15:30 1023 30.21 852 25.16 32.7 90.8 15 3.1 37.6
15:35 1023 30.21 852 25.16 32 89.7 17 3.9 39.1
15:40 1023 30.21 852 25.16 32.5 90.5 16 4 39.2
15:45 1023 30.21 852 25.16 32.3 90.2 15 2.7 36.8
15:50 1023 30.21 852 25.16 32.7 90.9 16 4.2 39.6
15:55 1023 30.21 852 25.16 32.9 91.2 15 2.9 37.2
16:00 1023 30.21 852 25.16 32.8 91.1 15 3.1 37.5
16:05 1023 30.21 852 25.16 32.5 90.6 15 2.6 36.7
16:10 1023 30.21 852 25.16 33.2 91.7 15 3.5 38.3
16:15 1023 30.21 852 25.16 33.4 92.1 14 3.2 37.7
16:20 1022 30.18 852 25.16 32.9 91.1 15 3.5 38.3
16:25 1022 30.18 852 25.16 32.4 90.2 15 3.2 37.8
16:30 1022 30.18 852 25.16 32.1 89.7 17 4.4 39.9
16:35 1022 30.18 851 25.13 31.9 89.3 17 4 39.3
16:40 1022 30.18 851 25.13 32.3 90.1 18 5.1 41.1
16:45 1022 30.18 851 25.13 32.1 89.7 18 4.9 40.8
16:50 1022 30.18 851 25.13 32.3 90.1 15 3.1 37.7
16:55 1022 30.18 851 25.13 32.2 90 17 4.1 39.3
17:00 1022 30.18 851 25.13 32 89.6 16 3.5 38.4
17:05 1022 30.18 851 25.13 31.9 89.3 18 5.2 41.3
17:10 1022 30.18 851 25.13 31.6 88.9 18 4.5 40.1
17:15 1022 30.18 851 25.13 31.9 89.4 17 4.3 39.8
17:20 1022 30.18 851 25.13 32 89.6 18 5 40.9
17:25 1022 30.18 851 25.13 31.9 89.4 18 5.3 41.5
17:30 1022 30.18 851 25.13 31.8 89.3 18 4.7 40.4
17:35 1022 30.18 851 25.13 31.8 89.3 19 5.5 42
17:40 1022 30.18 851 25.13 31.7 89 19 5.6 42.1
17:45 1022 30.18 851 25.13 31.5 88.6 19 5.1 41.2
17:50 1022 30.18 851 25.13 31.5 88.7 19 5.8 42.5
17:55 1022 30.18 851 25.13 31.2 88.2 19 5.6 42
18:00 1022 30.18 851 25.13 30.8 87.4 20 5.3 41.5
18:05 1022 30.18 851 25.13 30.7 87.2 21 6.1 43
18:10 1022 30.18 851 25.13 30.6 87 21 6.3 43.3
18:15 1022 30.18 851 25.13 30.4 86.8 22 6.4 43.6
18:20 1022 30.18 851 25.13 30.3 86.6 21 6.2 43.2
18:25 1022 30.18 851 25.13 30.2 86.4 21 6 42.8
18:30 1022 30.18 851 25.13 30.1 86.2 21 5.9 42.6
18:35 1021 30.15 851 25.13 30 86 22 6.2 43.2
18:40 1022 30.18 851 25.13 29.8 85.6 23 6.9 44.4
18:45 1022 30.18 851 25.13 29.5 85.2 22 6 42.8
18:50 1022 30.18 851 25.13 29.5 85 23 6.7 44
18:55 1021 30.15 851 25.13 29.2 84.6 24 7.2 45
19:00 1021 30.15 851 25.13 28.9 84 24 6.7 44
19:05 1021 30.15 851 25.13 28.8 83.8 25 7.1 44.8
19:10 1021 30.15 851 25.13 28.5 83.3 26 7.3 45.1
19:15 1021 30.15 851 25.13 28.3 82.9 25 6.9 44.5
19:20 1022 30.18 851 25.13 28.1 82.5 27 7.6 45.6
19:25 1022 30.18 851 25.13 27.7 81.8 29 8.2 46.8
19:30 1022 30.18 851 25.13 27.4 81.2 30 8.4 47.1
19:35 1022 30.18 851 25.13 27.1 80.7 30 8.2 46.7
19:40 1022 30.18 851 25.13 27 80.6 29 7.9 46.2
19:45 1022 30.18 851 25.13 26.8 80.3 29 7.8 46.1
19:50 1022 30.18 851 25.13 26.3 79.3 32 8.7 47.6
19:55 1022 30.18 851 25.13 25.7 78.2 33 8.5 47.3
20:00 1022 30.18 851 25.13 25.3 77.6 35 8.9 48.1
20:05 1022 30.18 851 25.13 24.9 76.9 36 9 48.3
20:10 1022 30.18 851 25.13 24.7 76.4 36 8.7 47.7
20:15 1022 30.18 851 25.13 24.7 76.5 35 8.4 47.2
20:20 1022 30.18 851 25.13 24.9 76.7 34 8 46.4
20:25 1022 30.18 851 25.13 24.9 76.8 34 8.1 46.6
20:30 1022 30.18 851 25.13 25 77 32 7.4 45.3
20:35 1022 30.18 851 25.13 25.3 77.5 32 7.9 46.1
20:40 1022 30.18 851 25.13 24.9 76.9 33 7.9 46.3
20:45 1022 30.18 851 25.13 24.5 76.1 37 9 48.1
20:50 1022 30.18 851 25.13 23.6 74.5 40 9.4 48.9
20:55 1022 30.18 852 25.16 23 73.5 41 9.2 48.5
21:00 1022 30.18 852 25.16 22.8 73.1 41 9 48.2
21:05 1022 30.18 852 25.16 22.9 73.3 41 9.1 48.4
21:10 1022 30.18 852 25.16 23 73.5 39 8.6 47.5
21:15 1022 30.18 852 25.16 23 73.3 40 8.8 47.9
21:20 1022 30.18 852 25.16 22.9 73.1 41 9.1 48.4
21:25 1022 30.18 852 25.16 22.7 72.8 44 9.9 49.8
21:30 1022 30.18 852 25.16 22.5 72.4 42 9 48.3
21:35 1022 30.18 852 25.16 22.3 72.2 42 8.9 48.1
21:40 1022 30.18 852 25.16 22.2 71.9 42 8.9 48.1
21:45 1022 30.18 852 25.16 22 71.6 40 8.1 46.6
21:50 1022 30.18 852 25.16 22.3 72.1 39 7.9 46.3
21:55 1022 30.18 852 25.16 22.2 72 40 8.3 47
22:00 1022 30.18 852 25.16 22.1 71.8 40 7.9 46.3
22:05 1022 30.18 852 25.16 22.2 71.9 39 7.9 46.2
22:10 1022 30.18 852 25.16 22.2 72 40 8.2 46.7
22:15 1022 30.18 852 25.16 22.5 72.5 38 7.5 45.4
22:20 1022 30.18 852 25.16 22.7 72.8 34 6.3 43.4
22:25 1022 30.18 852 25.16 23 73.3 37 7.5 45.5
22:30 1022 30.18 852 25.16 22.8 73 34 6.4 43.6
22:35 1022 30.18 852 25.16 23.2 73.7 35 7.3 45.1
22:40 1022 30.18 852 25.16 23.1 73.5 33 6.3 43.3
22:45 1022 30.18 852 25.16 22.9 73.2 37 7.4 45.4
22:50 1022 30.18 852 25.16 22.4 72.4 35 6.5 43.7
22:55 1022 30.18 852 25.16 22.4 72.4 35 6.5 43.7
23:00 1022 30.18 852 25.16 22.5 72.5 35 6.6 44
23:05 1022 30.18 852 25.16 22.3 72.1 36 6.7 44.1
23:10 1022 30.18 852 25.16 22.1 71.8 37 6.8 44.3
23:15 1022 30.18 852 25.16 22 71.6 37 6.7 44.1
23:20 1022 30.18 852 25.16 22.1 71.7 38 7.2 44.9
23:25 1022 30.18 851 25.13 21.9 71.5 37 6.8 44.2
23:30 1022 30.18 851 25.13 22.1 71.8 36 6.3 43.4
23:35 1022 30.18 851 25.13 22.3 72.1 36 6.5 43.8
23:40 1022 30.18 851 25.13 22.1 71.8 35 6.2 43.2
23:45 1022 30.18 851 25.13 22.4 72.2 36 6.9 44.3
23:50 1022 30.18 851 25.13 22.1 71.7 36 6.7 44
23:55 1022 30.18 851 25.13 21.8 71.3 37 6.6 43.8
24:00 1022 30.18 851 25.13 21.7 71 37 6.3 43.4